Leuchars, United Kingdom

11:45 PM BST on August 22, 2014 (GMT +0100)
IDUNDEE2 | Change Station
CLOSE
Current Station
Personal Weather Station
Location: Dundee, Scotland
Elevation: 59 ft
Nearby Weather Stations

Elev 59 ft 56.46 °N, 2.98 °W | Updated 4 minutes ago

Clear
Clear
52.0 °F
Feels Like 52.0 °F
N
6.0
Wind Variable Wind from WNW

Today
High -- | Low -- °F
--% Chance of Precip.
Yesterday
High -- | Low -- °F
Precip. -- in
5:54 AM 8:32 PM
Waning Crescent, 6% visible
Pressure 29.86 in
Visibility -9999.0 miles
Clouds
Dew Point 45 °F
Humidity 78%
Rainfall 0.00 in
Snow Depth Not available.
UV Not available.
Pollen Not available.
Air Quality Not available.
Flu Activity Not available.
METAR EGPH 222220Z 20005KT CAVOK 10/08 Q1011

More Conditions Fewer Conditions

Pressure 29.86 in
Visibility -9999.0 miles
Clouds
Dew Point 45 °F
Humidity 78%
Rainfall 0.00 in
Snow Depth Not available.
UV Not available.
Pollen Not available.
Air Quality Not available.
Flu Activity Not available.
METAR EGPH 222220Z 20005KT CAVOK 10/08 Q1011

More Conditions Fewer Conditions

10-Day Weather Forecast

Almanac

Astronomy

Aug. 22, 2014 Rise Set
Actual Time 5:54 AM BST 8:32 PM BST
Civil Twilight 5:12 AM BST 9:14 PM BST
Nautical Twilight 4:17 AM BST 10:09 PM BST
Astronomical Twilight 3:05 AM BST 11:19 PM BST
Moon 2:48 AM BST 6:43 PM BST
Length of Visible Light 16h 02m
Length of Day
14h 38m
Tomorrow will be 4m 31s shorter.
Waning Crescent, 6% of the Moon is Illuminated
Today
Waning Crescent
Aug 25
New
Sep 2
First Quarter
Sep 8
Full
Sep 15
Last Quarter

Today's Extremes

Country Highs Country Lows

Community

WunderPhotos

Upload Photos

1,746,278 photos uploaded!

WunderBlogs® & News

By Dr. Jeff Masters
Director of Meteorology, Weather Underground
By Kari Strenfel
Meteorologist, Weather Underground
By Christopher C. Burt
Weather Historian, Weather Underground
August 22, 2014
August 22, 2014
August 22, 2014

Nearby

Snow Depth

Not available.

Earthquake Activity

City Distance Mag. Time & Date
No recent earthquake activity has been reported nearby.
Minimum magnitude displayed is 2.5.

Coastal Water Temperatures

Place Temperature
No Stations Reporting

Nearby Weather Stations